Time;durP1;ratioP1;P1;durP2;ratioP2;P2;SDS_P1;SDS_P2;PMS_P1;PMS_P2;Temp;Humidity;BMP_temperature;BMP_pressure;BME280_temperature;BME280_humidity;BME280_pressure;Samples;Min_cycle;Max_cycle;Signal;HPM_P1;HPM_P2
2020/12/23 00:00:21;;;;;;;32.05;3.13;;;7.20;99.90;;;;;;5059685;28;20382;-56
2020/12/23 00:02:47;;;;;;;36.00;3.30;;;7.20;99.90;;;;;;5056268;28;20395;-54
2020/12/23 00:05:15;;;;;;;27.52;3.25;;;7.20;99.90;;;;;;5063346;28;20447;-54
2020/12/23 00:07:41;;;;;;;29.02;3.15;;;7.20;99.90;;;;;;5068405;28;20388;-56
2020/12/23 00:10:08;;;;;;;32.88;4.10;;;7.10;99.90;;;;;;5064178;28;20378;-55
2020/12/23 00:12:35;;;;;;;33.63;3.50;;;7.00;99.90;;;;;;5060524;28;20708;-54
2020/12/23 00:15:01;;;;;;;23.90;2.27;;;7.00;99.90;;;;;;5059737;28;20398;-53
2020/12/23 00:17:27;;;;;;;26.57;3.00;;;7.10;99.90;;;;;;5062366;28;20406;-53
2020/12/23 00:19:53;;;;;;;31.40;3.40;;;7.10;99.90;;;;;;5058840;28;20383;-53
2020/12/23 00:22:19;;;;;;;33.28;3.80;;;7.10;99.90;;;;;;5068418;28;20402;-55
2020/12/23 00:24:45;;;;;;;31.27;3.58;;;7.00;99.90;;;;;;5063065;28;20371;-55
2020/12/23 00:27:11;;;;;;;35.60;3.45;;;7.00;99.90;;;;;;5056488;28;20388;-51
2020/12/23 00:29:38;;;;;;;32.78;3.60;;;7.10;99.90;;;;;;5059371;28;20378;-53
2020/12/23 00:32:04;;;;;;;28.85;3.63;;;7.00;99.90;;;;;;5055331;28;20739;-52
2020/12/23 00:34:31;;;;;;;27.35;3.35;;;7.00;99.90;;;;;;5063630;28;20458;-55
2020/12/23 00:36:58;;;;;;;37.22;3.53;;;7.00;99.90;;;;;;5069131;28;20518;-55
2020/12/23 00:39:24;;;;;;;34.88;3.70;;;7.10;99.90;;;;;;5062754;28;20379;-55
2020/12/23 00:41:50;;;;;;;27.92;3.15;;;7.10;99.90;;;;;;5064269;28;20398;-53
2020/12/23 00:44:16;;;;;;;29.00;3.78;;;7.10;99.90;;;;;;5063841;28;20356;-52
2020/12/23 00:46:43;;;;;;;27.33;2.60;;;7.20;99.90;;;;;;5062359;28;20401;-52
2020/12/23 00:49:09;;;;;;;27.45;3.35;;;7.20;99.90;;;;;;5069069;28;20402;-56
2020/12/23 00:51:35;;;;;;;36.08;3.55;;;7.30;99.90;;;;;;5063219;28;21355;-52
2020/12/23 00:54:01;;;;;;;33.15;3.35;;;7.30;99.90;;;;;;5059412;28;20393;-54
2020/12/23 00:56:28;;;;;;;29.77;3.13;;;7.30;99.90;;;;;;5064274;28;20398;-53
2020/12/23 00:58:54;;;;;;;29.38;2.58;;;7.30;99.90;;;;;;5064053;28;20385;-56
2020/12/23 01:01:20;;;;;;;33.60;3.72;;;7.30;99.90;;;;;;5058688;28;20393;-56
2020/12/23 01:03:46;;;;;;;26.98;3.10;;;7.20;99.90;;;;;;5065907;28;20408;-53
2020/12/23 01:06:12;;;;;;;29.67;2.95;;;7.30;99.90;;;;;;5068840;28;20378;-52
2020/12/23 01:08:39;;;;;;;27.98;3.97;;;7.30;99.90;;;;;;5058617;28;20867;-52
2020/12/23 01:11:05;;;;;;;29.60;3.55;;;7.20;99.90;;;;;;5056048;28;20387;-55
2020/12/23 01:13:32;;;;;;;31.88;3.10;;;7.20;99.90;;;;;;5069761;28;20388;-55
2020/12/23 01:15:59;;;;;;;29.17;3.80;;;7.10;99.90;;;;;;5064977;28;20400;-52
2020/12/23 01:18:25;;;;;;;33.92;3.70;;;7.20;99.90;;;;;;5064905;28;20415;-53
2020/12/23 01:20:51;;;;;;;25.70;3.17;;;7.20;99.90;;;;;;5068348;28;20393;-55
2020/12/23 01:23:18;;;;;;;31.87;3.40;;;7.20;99.90;;;;;;5063723;28;20398;-54
2020/12/23 01:25:44;;;;;;;33.17;3.17;;;7.20;99.90;;;;;;5062655;28;20384;-53
2020/12/23 01:28:10;;;;;;;29.20;3.75;;;7.20;99.90;;;;;;5062174;28;20384;-52
2020/12/23 01:30:37;;;;;;;34.20;3.78;;;7.20;99.90;;;;;;5065506;28;20390;-53
2020/12/23 01:33:03;;;;;;;35.33;3.88;;;7.30;99.90;;;;;;5061398;28;20391;-52
2020/12/23 01:35:29;;;;;;;24.65;4.07;;;7.20;99.90;;;;;;5069829;28;20398;-52
2020/12/23 01:37:55;;;;;;;30.05;3.33;;;7.30;99.90;;;;;;5069027;28;20410;-53
2020/12/23 01:40:22;;;;;;;28.50;3.08;;;7.30;99.90;;;;;;5061917;28;20805;-53
2020/12/23 01:42:48;;;;;;;29.92;3.50;;;7.30;99.90;;;;;;5063640;28;20378;-54
2020/12/23 01:45:14;;;;;;;29.05;3.58;;;7.30;99.90;;;;;;5068097;28;20870;-52
2020/12/23 01:47:43;;;;;;;32.03;3.42;;;7.30;99.90;;;;;;5057680;28;20391;-53
2020/12/23 01:50:09;;;;;;;28.55;3.10;;;7.20;99.90;;;;;;5065168;28;20816;-54
2020/12/23 01:52:35;;;;;;;33.55;3.78;;;7.10;99.90;;;;;;5056495;28;20887;-53
2020/12/23 01:55:01;;;;;;;36.63;3.70;;;7.10;99.90;;;;;;5056519;28;20398;-52
2020/12/23 01:57:27;;;;;;;29.55;3.35;;;7.10;99.90;;;;;;5059178;28;20401;-52
2020/12/23 01:59:53;;;;;;;41.72;4.13;;;7.10;99.90;;;;;;5063814;28;20862;-52
2020/12/23 02:02:29;;;;;;;31.23;3.22;;;7.00;99.90;;;;;;5061251;28;20922;-55
2020/12/23 02:05:02;;;;;;;39.22;3.75;;;7.00;99.90;;;;;;5066682;28;20409;-51
2020/12/23 02:07:28;;;;;;;35.25;4.72;;;7.00;99.90;;;;;;5068352;28;20367;-54
2020/12/23 02:09:59;;;;;;;28.00;3.33;;;6.90;99.90;;;;;;5064228;28;20382;-55
2020/12/23 02:12:26;;;;;;;29.58;3.55;;;7.00;99.90;;;;;;5057823;28;20719;-51
2020/12/23 02:14:54;;;;;;;38.97;3.90;;;6.90;99.90;;;;;;5061289;28;20921;-55
2020/12/23 02:17:21;;;;;;;34.08;4.30;;;6.90;99.90;;;;;;5065436;28;20878;-51
2020/12/23 02:19:50;;;;;;;34.20;3.55;;;6.90;99.90;;;;;;5058220;28;20731;-55
2020/12/23 02:22:27;;;;;;;39.03;4.87;;;6.90;99.90;;;;;;5057411;28;20417;-52
2020/12/23 02:24:53;;;;;;;37.30;4.15;;;6.90;99.90;;;;;;5065500;28;20441;-54
2020/12/23 02:27:20;;;;;;;37.17;3.83;;;6.90;99.90;;;;;;5056240;28;20395;-52
2020/12/23 02:29:47;;;;;;;26.93;3.30;;;7.00;99.90;;;;;;5063601;28;20385;-55
2020/12/23 02:32:14;;;;;;;36.22;4.40;;;7.00;99.90;;;;;;5060786;28;20401;-52
2020/12/23 02:34:40;;;;;;;39.15;3.92;;;7.00;99.90;;;;;;5064883;28;20398;-52
2020/12/23 02:37:07;;;;;;;38.03;4.03;;;7.00;99.90;;;;;;5059961;28;20407;-53
2020/12/23 02:39:33;;;;;;;32.72;3.40;;;7.00;99.90;;;;;;5069738;28;20404;-54
2020/12/23 02:42:00;;;;;;;33.25;3.75;;;6.90;99.90;;;;;;5059325;28;20393;-53
2020/12/23 02:44:27;;;;;;;30.38;3.10;;;6.90;99.90;;;;;;5063199;28;20383;-55
2020/12/23 02:47:01;;;;;;;26.38;3.17;;;6.90;99.90;;;;;;5058905;28;20391;-54
2020/12/23 02:49:27;;;;;;;32.97;3.92;;;6.90;99.90;;;;;;5062020;28;20386;-55
2020/12/23 02:51:54;;;;;;;30.10;3.17;;;6.90;99.90;;;;;;5055700;28;20387;-54
2020/12/23 02:54:20;;;;;;;28.92;3.17;;;6.90;99.90;;;;;;5060251;28;20813;-54
2020/12/23 02:56:46;;;;;;;34.47;3.70;;;6.90;99.90;;;;;;5061312;28;20455;-54
2020/12/23 02:59:12;;;;;;;31.65;3.63;;;6.80;99.90;;;;;;5062757;28;20395;-53
2020/12/23 03:01:39;;;;;;;32.53;3.00;;;6.80;99.90;;;;;;5058041;28;20368;-51
2020/12/23 03:04:05;;;;;;;22.48;3.03;;;6.90;99.90;;;;;;5062669;28;20874;-55
2020/12/23 03:06:32;;;;;;;34.40;3.42;;;6.90;99.90;;;;;;5064573;28;20405;-54
2020/12/23 03:08:58;;;;;;;28.10;2.72;;;6.90;99.90;;;;;;5070534;28;20386;-51
2020/12/23 03:11:24;;;;;;;29.13;2.97;;;6.90;99.90;;;;;;5055750;28;20371;-55
2020/12/23 03:13:50;;;;;;;29.17;3.00;;;6.90;99.90;;;;;;5065038;28;20388;-53
2020/12/23 03:16:16;;;;;;;34.03;3.63;;;7.00;99.90;;;;;;5058118;28;20403;-53
2020/12/23 03:18:43;;;;;;;27.43;2.63;;;7.00;99.90;;;;;;5065006;28;20414;-55
2020/12/23 03:21:09;;;;;;;30.23;3.33;;;6.90;99.90;;;;;;5063726;28;20382;-54
2020/12/23 03:23:35;;;;;;;31.58;3.22;;;6.90;99.90;;;;;;5065997;28;20470;-52
2020/12/23 03:26:03;;;;;;;29.50;3.20;;;7.00;99.90;;;;;;5058300;28;20837;-53
2020/12/23 03:28:29;;;;;;;23.65;2.83;;;7.00;99.90;;;;;;5063449;28;20380;-52
2020/12/23 03:30:55;;;;;;;23.50;2.57;;;7.10;99.90;;;;;;5064446;28;20379;-52
2020/12/23 03:33:21;;;;;;;23.87;2.70;;;6.90;99.90;;;;;;5059346;28;20379;-54
2020/12/23 03:35:48;;;;;;;27.70;3.92;;;7.00;99.90;;;;;;5066461;28;20409;-55
2020/12/23 03:38:14;;;;;;;24.63;2.20;;;6.90;99.90;;;;;;5064313;28;20410;-55
2020/12/23 03:40:40;;;;;;;31.38;3.10;;;6.80;99.90;;;;;;5061725;28;20386;-55
2020/12/23 03:43:06;;;;;;;25.67;3.00;;;6.80;99.90;;;;;;5068449;28;20382;-52
2020/12/23 03:45:33;;;;;;;27.63;2.67;;;6.90;99.90;;;;;;5058367;28;20386;-54
2020/12/23 03:47:59;;;;;;;25.52;3.05;;;7.00;99.90;;;;;;5052987;28;20911;-54
2020/12/23 03:50:28;;;;;;;30.08;3.33;;;7.00;99.90;;;;;;5063405;28;20698;-55
2020/12/23 03:52:54;;;;;;;25.23;2.90;;;7.00;99.90;;;;;;5059000;28;20403;-54
2020/12/23 03:55:20;;;;;;;24.05;2.83;;;6.90;99.90;;;;;;5062944;28;20438;-56
2020/12/23 03:57:46;;;;;;;23.92;2.85;;;7.00;99.90;;;;;;5058490;28;20402;-54
2020/12/23 04:00:12;;;;;;;20.92;3.00;;;6.90;99.90;;;;;;5061547;28;20384;-54
2020/12/23 04:02:39;;;;;;;20.92;2.50;;;6.90;99.90;;;;;;5058908;28;20420;-53
2020/12/23 04:05:08;;;;;;;22.45;2.72;;;6.80;99.90;;;;;;5065417;28;20866;-55
2020/12/23 04:07:34;;;;;;;15.05;1.95;;;6.70;99.90;;;;;;5060494;28;20403;-54
2020/12/23 04:10:10;;;;;;;17.58;2.22;;;6.70;99.90;;;;;;5059150;28;20508;-52
2020/12/23 04:12:36;;;;;;;18.90;2.50;;;6.80;99.90;;;;;;5066712;28;20390;-52
2020/12/23 04:15:06;;;;;;;18.13;2.25;;;6.70;99.90;;;;;;5057661;28;20428;-51
2020/12/23 04:17:32;;;;;;;23.70;2.80;;;6.70;99.90;;;;;;5076259;28;20410;-51
2020/12/23 04:19:58;;;;;;;17.73;2.35;;;6.60;99.90;;;;;;5059429;28;20375;-52
2020/12/23 04:22:28;;;;;;;23.52;2.53;;;6.50;99.90;;;;;;5054727;28;20887;-55
2020/12/23 04:24:58;;;;;;;25.33;2.67;;;6.50;99.90;;;;;;5060067;28;20382;-55
2020/12/23 04:27:28;;;;;;;25.70;2.63;;;6.50;99.90;;;;;;5061510;28;20390;-53
2020/12/23 04:29:54;;;;;;;20.03;2.70;;;6.50;99.90;;;;;;5057067;28;20380;-53
2020/12/23 04:32:20;;;;;;;19.50;2.13;;;6.60;99.90;;;;;;5065585;28;20403;-55
2020/12/23 04:34:47;;;;;;;23.42;2.67;;;6.60;99.90;;;;;;5068142;28;20397;-52
2020/12/23 04:37:13;;;;;;;20.83;2.17;;;6.60;99.90;;;;;;5066706;28;20854;-51
2020/12/23 04:39:39;;;;;;;23.88;2.63;;;6.50;99.90;;;;;;5063184;28;20402;-51
2020/12/23 04:42:05;;;;;;;18.73;2.20;;;6.60;99.90;;;;;;5060088;28;20372;-53
2020/12/23 04:44:32;;;;;;;26.50;2.97;;;6.60;99.90;;;;;;5055527;28;20732;-53
2020/12/23 04:46:58;;;;;;;21.80;2.53;;;6.60;99.90;;;;;;5064403;28;20395;-52
2020/12/23 04:49:25;;;;;;;20.17;2.25;;;6.60;99.90;;;;;;5062836;28;20415;-52
2020/12/23 04:51:54;;;;;;;23.70;2.60;;;6.60;99.90;;;;;;5066669;28;20385;-51
2020/12/23 04:54:21;;;;;;;26.85;3.22;;;6.50;99.90;;;;;;5065110;28;20749;-55
2020/12/23 04:56:50;;;;;;;25.20;2.70;;;6.40;99.90;;;;;;5055369;28;20382;-54
2020/12/23 04:59:16;;;;;;;22.42;2.42;;;6.50;99.90;;;;;;5055765;28;20399;-52
2020/12/23 05:01:42;;;;;;;22.40;2.90;;;6.50;99.90;;;;;;5054146;28;20741;-54
2020/12/23 05:04:09;;;;;;;23.50;3.05;;;6.50;99.90;;;;;;5059961;28;20421;-52
2020/12/23 05:06:36;;;;;;;20.38;2.40;;;6.40;99.90;;;;;;5073006;28;20457;-51
2020/12/23 05:09:06;;;;;;;22.35;2.65;;;6.50;99.90;;;;;;5049578;28;20388;-54
2020/12/23 05:11:33;;;;;;;23.15;3.42;;;6.60;99.90;;;;;;5060968;28;20733;-52
2020/12/23 05:14:06;;;;;;;18.92;2.55;;;6.50;99.90;;;;;;5062353;28;20984;-51
2020/12/23 05:16:32;;;;;;;29.10;3.50;;;6.50;99.90;;;;;;5067439;28;20390;-55
2020/12/23 05:18:59;;;;;;;28.77;3.70;;;6.40;99.90;;;;;;5058747;28;20407;-51
2020/12/23 05:21:26;;;;;;;27.83;4.25;;;6.30;99.90;;;;;;5059744;28;20374;-53
2020/12/23 05:23:52;;;;;;;27.70;3.80;;;6.30;99.90;;;;;;5059407;28;20406;-52
2020/12/23 05:26:19;;;;;;;25.73;3.30;;;6.30;99.90;;;;;;5060254;28;20823;-52
2020/12/23 05:28:45;;;;;;;27.70;2.83;;;6.20;99.90;;;;;;5055223;28;20387;-53
2020/12/23 05:31:13;;;;;;;36.42;3.20;;;6.10;99.90;;;;;;5062532;28;20399;-52
2020/12/23 05:33:41;;;;;;;28.45;2.97;;;6.20;99.90;;;;;;5058882;28;20459;-54
2020/12/23 05:36:08;;;;;;;32.25;3.30;;;6.30;99.90;;;;;;5068382;28;20394;-55
2020/12/23 05:38:35;;;;;;;32.73;3.53;;;6.30;99.90;;;;;;5070215;28;20407;-54
2020/12/23 05:41:02;;;;;;;30.13;3.05;;;6.30;99.90;;;;;;5063151;28;20514;-53
2020/12/23 05:43:28;;;;;;;27.63;3.30;;;6.30;99.90;;;;;;5065372;28;20382;-51
2020/12/23 05:45:55;;;;;;;30.83;3.00;;;6.40;99.90;;;;;;5065827;28;20366;-55
2020/12/23 05:48:22;;;;;;;30.23;3.53;;;6.30;99.90;;;;;;5044024;28;20395;-53
2020/12/23 05:50:48;;;;;;;28.17;3.28;;;6.40;99.90;;;;;;5063438;28;20372;-54
2020/12/23 05:53:15;;;;;;;32.70;3.40;;;6.40;99.90;;;;;;5060951;28;20390;-52
2020/12/23 05:55:48;;;;;;;30.17;3.05;;;6.40;99.90;;;;;;5056389;28;20392;-56
2020/12/23 05:58:40;;;;;;;28.88;3.75;;;6.50;99.90;;;;;;5063147;28;20410;-53
2020/12/23 06:01:07;;;;;;;24.60;3.00;;;6.60;99.90;;;;;;5063458;28;20380;-54
2020/12/23 06:03:54;;;;;;;34.05;3.42;;;6.60;99.90;;;;;;5060474;28;20852;-52
2020/12/23 06:06:22;;;;;;;34.92;4.35;;;6.70;99.90;;;;;;5071951;28;20417;-53
2020/12/23 06:08:53;;;;;;;35.20;3.03;;;6.70;99.90;;;;;;5067987;28;20374;-55
2020/12/23 06:11:47;;;;;;;30.10;3.45;;;6.70;99.90;;;;;;5057110;28;20467;-55
2020/12/23 06:14:16;;;;;;;24.02;3.05;;;6.70;99.90;;;;;;5063858;28;20374;-53
2020/12/23 06:16:46;;;;;;;28.85;2.60;;;6.70;99.90;;;;;;5057109;28;20387;-52
2020/12/23 06:19:36;;;;;;;22.02;3.15;;;6.70;99.90;;;;;;5054232;28;20406;-52
2020/12/23 06:22:06;;;;;;;26.33;3.17;;;6.70;99.90;;;;;;5073662;28;20387;-54
2020/12/23 06:24:32;;;;;;;29.60;3.33;;;6.70;99.90;;;;;;5060917;28;20380;-52
2020/12/23 06:27:00;;;;;;;29.80;3.35;;;6.80;99.90;;;;;;5061728;28;20380;-53
2020/12/23 06:29:28;;;;;;;23.77;2.87;;;6.80;99.90;;;;;;5060940;28;20372;-56
2020/12/23 06:31:59;;;;;;;30.42;3.13;;;6.80;99.90;;;;;;5064884;28;20381;-51
2020/12/23 06:34:36;;;;;;;30.83;3.88;;;6.80;99.90;;;;;;5061484;28;20904;-52
2020/12/23 06:37:17;;;;;;;24.27;3.05;;;6.80;99.90;;;;;;5064170;28;20461;-52
2020/12/23 06:39:44;;;;;;;26.77;3.28;;;6.80;99.90;;;;;;5059473;28;20760;-51
2020/12/23 06:42:10;;;;;;;37.40;4.13;;;6.70;99.90;;;;;;5060673;28;20888;-52
2020/12/23 06:44:42;;;;;;;30.93;3.73;;;6.60;99.90;;;;;;5063777;28;20398;-54
2020/12/23 06:47:09;;;;;;;32.67;3.20;;;6.70;99.90;;;;;;5058935;28;20396;-54
2020/12/23 06:49:42;;;;;;;32.78;2.90;;;6.70;99.90;;;;;;5063878;28;20382;-52
2020/12/23 06:52:24;;;;;;;36.78;3.30;;;6.70;99.90;;;;;;5062922;28;20435;-56
2020/12/23 06:54:51;;;;;;;30.45;3.17;;;6.60;99.90;;;;;;5053461;28;20395;-51
2020/12/23 06:57:38;;;;;;;31.17;3.22;;;6.50;99.90;;;;;;5061404;28;20381;-54
2020/12/23 07:00:05;;;;;;;34.23;3.80;;;6.40;99.90;;;;;;5065982;28;20745;-55
2020/12/23 07:02:40;;;;;;;31.17;2.63;;;6.40;99.90;;;;;;5060367;28;20379;-54
2020/12/23 07:05:14;;;;;;;29.60;3.50;;;6.30;99.90;;;;;;5065393;28;20407;-52
2020/12/23 07:07:43;;;;;;;31.48;4.22;;;6.20;99.90;;;;;;5063979;28;20399;-53
2020/12/23 07:10:13;;;;;;;33.90;4.05;;;6.10;99.90;;;;;;5057121;28;20390;-54
2020/12/23 07:12:44;;;;;;;36.78;3.70;;;6.10;99.90;;;;;;5060222;28;20386;-54
2020/12/23 07:15:12;;;;;;;33.47;3.42;;;6.10;99.90;;;;;;5062771;28;20739;-51
2020/12/23 07:17:40;;;;;;;30.67;3.17;;;6.10;99.90;;;;;;5060151;28;20379;-55
2020/12/23 07:20:07;;;;;;;40.05;3.75;;;6.20;99.90;;;;;;5054614;28;20372;-51
2020/12/23 07:22:33;;;;;;;33.38;3.45;;;6.20;99.90;;;;;;5056660;28;20395;-53
2020/12/23 07:25:00;;;;;;;28.20;3.53;;;6.20;99.90;;;;;;5051702;28;20740;-55
2020/12/23 07:27:27;;;;;;;33.55;2.90;;;6.20;99.90;;;;;;5059722;28;20386;-51
2020/12/23 07:29:57;;;;;;;32.38;3.22;;;6.30;99.90;;;;;;5061487;28;20376;-52
2020/12/23 07:32:23;;;;;;;29.13;3.20;;;6.40;99.90;;;;;;5061586;28;20396;-55
2020/12/23 07:34:50;;;;;;;30.17;2.70;;;6.30;99.90;;;;;;5065939;28;20391;-51
2020/12/23 07:37:16;;;;;;;35.83;3.25;;;6.30;99.90;;;;;;5062679;28;20402;-51
2020/12/23 07:39:48;;;;;;;30.40;3.07;;;6.30;99.90;;;;;;5058559;28;20415;-51
2020/12/23 07:42:18;;;;;;;28.20;3.80;;;6.20;99.90;;;;;;5060615;28;20375;-54
2020/12/23 07:44:53;;;;;;;29.65;3.13;;;6.10;99.90;;;;;;5062547;28;20401;-54
2020/12/23 07:47:23;;;;;;;33.58;3.58;;;6.20;99.90;;;;;;5062023;28;20374;-52
2020/12/23 07:50:03;;;;;;;30.80;3.30;;;6.10;99.90;;;;;;5062411;28;20362;-53
2020/12/23 07:52:29;;;;;;;26.75;3.03;;;6.20;99.90;;;;;;5054741;28;20390;-51
2020/12/23 07:55:09;;;;;;;24.15;2.67;;;6.10;99.90;;;;;;5052829;28;20372;-54
2020/12/23 07:57:39;;;;;;;33.80;3.42;;;6.20;99.90;;;;;;5065427;28;20377;-50
2020/12/23 08:00:09;;;;;;;27.38;3.55;;;6.20;99.90;;;;;;5070909;28;20884;-52
2020/12/23 08:02:36;;;;;;;29.70;3.28;;;6.20;99.90;;;;;;5055347;28;20745;-55
2020/12/23 08:05:05;;;;;;;32.03;3.55;;;6.20;99.90;;;;;;5068978;28;20394;-50
2020/12/23 08:07:31;;;;;;;26.50;2.83;;;6.10;99.90;;;;;;5063239;28;20402;-55
2020/12/23 08:10:09;;;;;;;30.80;3.47;;;6.20;99.90;;;;;;5055804;28;21138;-54
2020/12/23 08:12:35;;;;;;;30.42;3.28;;;6.10;99.90;;;;;;5063638;28;20382;-54
2020/12/23 08:15:07;;;;;;;24.88;3.50;;;6.10;99.90;;;;;;5061292;28;20424;-52
2020/12/23 08:17:33;;;;;;;25.20;3.55;;;6.10;99.90;;;;;;5059178;28;20399;-53
2020/12/23 08:20:06;;;;;;;26.77;3.00;;;6.00;99.90;;;;;;5060588;28;20995;-51
2020/12/23 08:22:33;;;;;;;31.55;3.50;;;5.90;99.90;;;;;;5056491;28;20401;-53
2020/12/23 08:25:08;;;;;;;29.88;3.60;;;6.00;99.90;;;;;;5063703;28;20504;-52
2020/12/23 08:27:35;;;;;;;29.45;3.72;;;6.10;99.90;;;;;;5058750;28;20387;-52
2020/12/23 08:30:05;;;;;;;29.98;3.20;;;6.20;99.90;;;;;;5058901;28;20385;-55
2020/12/23 08:32:35;;;;;;;23.83;2.70;;;6.20;99.90;;;;;;5062867;28;20382;-50
2020/12/23 08:35:01;;;;;;;29.15;2.83;;;6.30;99.90;;;;;;5064332;28;20405;-53
2020/12/23 08:37:28;;;;;;;26.23;3.00;;;6.50;99.90;;;;;;5062561;28;20388;-54
2020/12/23 08:40:03;;;;;;;20.80;2.53;;;6.60;99.90;;;;;;5058074;28;20415;-53
2020/12/23 08:42:30;;;;;;;19.85;2.42;;;6.70;99.90;;;;;;5061826;28;20382;-54
2020/12/23 08:44:57;;;;;;;24.35;3.17;;;6.90;99.90;;;;;;5056479;28;20436;-52
2020/12/23 08:47:28;;;;;;;24.13;2.47;;;7.00;99.90;;;;;;5057488;28;20758;-50
2020/12/23 08:49:54;;;;;;;18.77;2.22;;;7.20;99.90;;;;;;5058418;28;20390;-51
2020/12/23 08:52:22;;;;;;;18.23;2.50;;;7.20;99.90;;;;;;5064717;28;20394;-54
2020/12/23 08:54:49;;;;;;;22.63;2.97;;;7.30;99.90;;;;;;5068767;28;20394;-53
2020/12/23 08:57:16;;;;;;;21.90;2.95;;;7.30;99.90;;;;;;5066669;28;20377;-52
2020/12/23 08:59:43;;;;;;;17.52;2.78;;;7.40;99.90;;;;;;5068996;28;20411;-51
2020/12/23 09:02:13;;;;;;;20.02;2.35;;;7.60;99.90;;;;;;5067684;28;20382;-51
2020/12/23 09:04:39;;;;;;;23.25;2.58;;;7.70;99.90;;;;;;5065914;28;20386;-52
2020/12/23 09:07:05;;;;;;;19.10;2.58;;;7.80;99.90;;;;;;5066937;28;20393;-51
2020/12/23 09:09:32;;;;;;;24.30;3.60;;;8.00;99.90;;;;;;5067280;28;20413;-51
2020/12/23 09:11:58;;;;;;;21.77;2.42;;;8.10;99.90;;;;;;5070179;28;20405;-52
2020/12/23 09:14:34;;;;;;;18.75;2.60;;;8.20;99.90;;;;;;5072108;28;20381;-51
2020/12/23 09:17:04;;;;;;;22.55;2.92;;;8.10;99.90;;;;;;5071306;28;20402;-51
2020/12/23 09:19:46;;;;;;;24.77;3.33;;;8.00;99.90;;;;;;5072558;28;20766;-52
2020/12/23 09:22:36;;;;;;;23.55;2.97;;;7.90;99.90;;;;;;5072244;28;20402;-54
2020/12/23 09:25:20;;;;;;;21.58;2.63;;;8.10;99.90;;;;;;5072113;28;20397;-49
2020/12/23 09:27:54;;;;;;;24.50;2.90;;;8.00;99.90;;;;;;5072238;28;20754;-52
2020/12/23 09:30:33;;;;;;;24.83;2.88;;;7.90;99.90;;;;;;5072794;28;21017;-52
2020/12/23 09:32:59;;;;;;;25.75;2.78;;;7.70;99.90;;;;;;5072802;28;20386;-51
2020/12/23 09:35:26;;;;;;;23.93;2.77;;;7.60;99.90;;;;;;5071698;28;20382;-52
2020/12/23 09:38:03;;;;;;;25.93;2.93;;;7.50;99.90;;;;;;5073447;28;20394;-51
2020/12/23 09:40:30;;;;;;;26.48;3.50;;;7.50;99.90;;;;;;5052322;28;20407;-51
2020/12/23 09:42:56;;;;;;;29.73;3.00;;;7.40;99.90;;;;;;5060741;28;20418;-54
2020/12/23 09:45:28;;;;;;;27.63;3.20;;;7.40;99.90;;;;;;5071638;28;20382;-53
2020/12/23 09:47:54;;;;;;;32.22;3.08;;;7.40;99.90;;;;;;5070314;28;20382;-52
2020/12/23 09:50:20;;;;;;;24.27;3.05;;;7.40;99.90;;;;;;5064700;28;20766;-55
2020/12/23 09:52:46;;;;;;;24.50;2.67;;;7.40;99.90;;;;;;5070127;28;20402;-50
2020/12/23 09:55:12;;;;;;;28.80;3.00;;;7.40;99.90;;;;;;5067311;28;20394;-49
2020/12/23 09:57:38;;;;;;;29.03;3.03;;;7.40;99.90;;;;;;5072698;28;20389;-52
2020/12/23 10:00:06;;;;;;;29.00;2.90;;;7.40;99.90;;;;;;5072692;28;20409;-50
2020/12/23 10:02:32;;;;;;;28.50;3.28;;;7.50;99.90;;;;;;5071458;28;20397;-49
2020/12/23 10:04:58;;;;;;;30.10;3.60;;;7.40;99.90;;;;;;5069984;28;20409;-52
2020/12/23 10:07:24;;;;;;;28.97;3.10;;;7.40;99.90;;;;;;5072549;28;20397;-53
2020/12/23 10:09:50;;;;;;;24.55;2.90;;;7.40;99.90;;;;;;5068704;28;20465;-49
2020/12/23 10:12:19;;;;;;;25.30;2.83;;;7.30;99.90;;;;;;5071499;28;20397;-50
2020/12/23 10:14:45;;;;;;;25.90;2.50;;;7.30;99.90;;;;;;5072135;28;20865;-49
2020/12/23 10:17:11;;;;;;;25.10;3.00;;;7.40;99.90;;;;;;5064095;28;21006;-49
2020/12/23 10:19:37;;;;;;;24.83;2.40;;;7.40;99.90;;;;;;5072023;28;20413;-51
2020/12/23 10:22:04;;;;;;;20.13;2.97;;;7.50;99.90;;;;;;5071507;28;20386;-50
2020/12/23 10:24:30;;;;;;;22.45;2.92;;;7.50;99.90;;;;;;5066480;28;20394;-49
2020/12/23 10:26:56;;;;;;;20.50;2.58;;;7.60;99.90;;;;;;5071870;28;20427;-50
2020/12/23 10:29:22;;;;;;;26.13;2.47;;;7.60;99.90;;;;;;5071948;28;20402;-52
2020/12/23 10:31:48;;;;;;;14.95;2.38;;;7.70;99.90;;;;;;5072583;28;20366;-50
2020/12/23 10:34:15;;;;;;;20.27;2.17;;;7.70;99.90;;;;;;5070910;28;20394;-51
2020/12/23 10:36:42;;;;;;;20.25;2.03;;;7.70;99.90;;;;;;5072039;28;20730;-52
2020/12/23 10:39:08;;;;;;;25.30;2.60;;;7.80;99.90;;;;;;5066408;28;20929;-53
2020/12/23 10:41:34;;;;;;;19.57;2.20;;;7.80;99.90;;;;;;5071962;28;20378;-49
2020/12/23 10:44:00;;;;;;;22.45;2.42;;;7.80;99.90;;;;;;5071826;28;20390;-50
2020/12/23 10:46:26;;;;;;;13.73;1.98;;;7.80;99.90;;;;;;5071533;28;20707;-52
2020/12/23 10:48:52;;;;;;;19.42;2.17;;;7.70;99.90;;;;;;5071402;28;20386;-50
2020/12/23 10:51:18;;;;;;;19.88;2.17;;;7.80;99.90;;;;;;5071882;28;20394;-50
2020/12/23 10:53:44;;;;;;;21.95;2.08;;;7.90;99.90;;;;;;5072353;28;20409;-49
2020/12/23 10:56:11;;;;;;;23.45;2.25;;;7.80;99.90;;;;;;5062926;28;20390;-49
2020/12/23 10:58:37;;;;;;;20.80;2.77;;;7.80;99.90;;;;;;5071607;28;20402;-51
2020/12/23 11:01:05;;;;;;;18.58;2.50;;;7.80;99.90;;;;;;5071798;28;20457;-50
2020/12/23 11:03:32;;;;;;;20.17;2.00;;;7.80;99.90;;;;;;5069500;28;20382;-50
2020/12/23 11:05:59;;;;;;;18.67;2.47;;;7.80;99.90;;;;;;5068969;28;20889;-49
2020/12/23 11:08:25;;;;;;;22.85;2.42;;;7.90;99.90;;;;;;5068442;28;20383;-49
2020/12/23 11:10:52;;;;;;;19.77;2.00;;;8.00;99.90;;;;;;5066361;28;20390;-49
2020/12/23 11:13:18;;;;;;;17.20;2.30;;;8.40;99.90;;;;;;5070420;28;20390;-50
2020/12/23 11:15:45;;;;;;;15.27;1.90;;;8.70;99.90;;;;;;5069374;28;20420;-53
2020/12/23 11:18:11;;;;;;;16.77;1.90;;;8.80;99.90;;;;;;5070805;28;20406;-58
2020/12/23 11:20:38;;;;;;;18.67;2.05;;;8.80;99.90;;;;;;5070261;28;20786;-53
2020/12/23 11:23:05;;;;;;;21.67;2.90;;;9.00;99.90;;;;;;5071204;28;20471;-49
2020/12/23 11:25:31;;;;;;;13.15;2.00;;;9.00;99.90;;;;;;5064672;28;20408;-49
2020/12/23 11:27:57;;;;;;;15.20;1.97;;;9.10;99.90;;;;;;5071486;28;20382;-52
2020/12/23 11:30:24;;;;;;;16.02;1.73;;;9.10;99.90;;;;;;5070543;28;20394;-49
2020/12/23 11:32:50;;;;;;;8.18;1.35;;;9.30;99.90;;;;;;5063639;28;20181;-49
2020/12/23 11:35:17;;;;;;;8.95;1.30;;;9.50;99.90;;;;;;5067235;28;20186;-50
2020/12/23 11:37:43;;;;;;;11.13;1.60;;;9.30;99.90;;;;;;5068170;28;20194;-50
2020/12/23 11:40:09;;;;;;;17.92;2.58;;;9.20;99.90;;;;;;5070788;28;20225;-49
2020/12/23 11:42:41;;;;;;;11.65;1.77;;;9.30;99.90;;;;;;5071554;28;20182;-50
2020/12/23 11:45:08;;;;;;;19.40;1.90;;;9.10;99.90;;;;;;5071760;28;20190;-50
2020/12/23 11:47:38;;;;;;;20.15;2.00;;;8.70;99.90;;;;;;5071432;28;20166;-49
2020/12/23 11:50:05;;;;;;;14.25;1.65;;;8.80;99.90;;;;;;5072131;28;20181;-49
2020/12/23 11:52:31;;;;;;;;;;;8.70;99.90;;;;;;5071703;28;20036;-50
2020/12/23 11:54:57;;;;;;;;;;;8.50;99.90;;;;;;5069455;28;19923;-52
2020/12/23 11:57:23;;;;;;;;;;;8.40;99.90;;;;;;5068792;28;19912;-49
2020/12/23 11:59:49;;;;;;;;;;;8.30;99.90;;;;;;5072388;28;20324;-49
2020/12/23 12:02:15;;;;;;;;;;;8.10;99.90;;;;;;5069967;28;20373;-50
2020/12/23 12:04:40;;;;;;;;;;;8.20;99.90;;;;;;5070877;28;19919;-49
2020/12/23 12:07:08;;;;;;;;;;;8.30;99.90;;;;;;5071813;28;19912;-49
2020/12/23 12:09:34;;;;;;;;;;;8.30;99.90;;;;;;5057402;28;19916;-49
2020/12/23 12:12:03;;;;;;;;;;;8.40;99.90;;;;;;5050886;28;19971;-50
2020/12/23 12:14:29;;;;;;;;;;;8.30;99.90;;;;;;5069442;28;19919;-52
2020/12/23 12:16:55;;;;;;;;;;;8.40;99.90;;;;;;5069806;28;19912;-50
2020/12/23 12:19:22;;;;;;;;;;;8.20;99.90;;;;;;5071407;28;20292;-52
2020/12/23 12:21:48;;;;;;;13.25;1.38;;;8.10;99.90;;;;;;5070350;28;20195;-50
2020/12/23 12:24:14;;;;;;;16.20;1.53;;;8.00;99.90;;;;;;5068608;28;20397;-49
2020/12/23 12:26:40;;;;;;;13.35;2.10;;;7.90;99.90;;;;;;5057757;28;20393;-50
2020/12/23 12:29:07;;;;;;;19.73;1.77;;;7.80;99.90;;;;;;5054661;28;20386;-50
2020/12/23 12:31:33;;;;;;;23.30;2.30;;;7.80;99.90;;;;;;5069799;28;20405;-50
2020/12/23 12:33:59;;;;;;;13.27;1.85;;;7.70;99.90;;;;;;5069171;28;20402;-49
2020/12/23 12:36:25;;;;;;;20.42;2.63;;;7.70;99.90;;;;;;5068005;28;20382;-50
2020/12/23 12:38:54;;;;;;;14.70;2.10;;;7.60;99.90;;;;;;5068106;28;20378;-50
2020/12/23 12:41:27;;;;;;;15.93;1.75;;;7.60;99.90;;;;;;5067270;28;20394;-51
2020/12/23 12:43:54;;;;;;;14.37;2.10;;;7.60;99.90;;;;;;5070589;28;20366;-50
2020/12/23 12:46:22;;;;;;;16.75;2.00;;;7.60;99.90;;;;;;5069961;28;20398;-52
2020/12/23 12:48:48;;;;;;;14.63;2.22;;;7.50;99.90;;;;;;5074146;28;20378;-50
2020/12/23 12:51:22;;;;;;;20.75;2.00;;;7.40;99.90;;;;;;5074234;28;20386;-52
2020/12/23 12:53:49;;;;;;;21.35;2.10;;;7.40;99.90;;;;;;5052799;28;20402;-48